sensor_id;sensor_type;location;lat;lon;timestamp;P1;durP1;ratioP1;P2;durP2;ratioP2
27632;SDS011;15046;50.930;13.334;2023-05-08T00:00:24;11.95;;;7.85;;
27632;SDS011;15046;50.930;13.334;2023-05-08T00:02:49;12.85;;;8.70;;
27632;SDS011;15046;50.930;13.334;2023-05-08T00:05:15;12.02;;;7.80;;
27632;SDS011;15046;50.930;13.334;2023-05-08T00:07:41;12.80;;;7.95;;
27632;SDS011;15046;50.930;13.334;2023-05-08T00:10:08;13.35;;;8.68;;
27632;SDS011;15046;50.930;13.334;2023-05-08T00:12:34;11.55;;;8.55;;
27632;SDS011;15046;50.930;13.334;2023-05-08T00:15:03;10.63;;;7.82;;
27632;SDS011;15046;50.930;13.334;2023-05-08T00:17:29;10.73;;;7.45;;
27632;SDS011;15046;50.930;13.334;2023-05-08T00:19:55;12.00;;;7.75;;
27632;SDS011;15046;50.930;13.334;2023-05-08T00:22:21;13.05;;;8.93;;
27632;SDS011;15046;50.930;13.334;2023-05-08T00:24:47;13.68;;;8.80;;
27632;SDS011;15046;50.930;13.334;2023-05-08T00:27:13;14.18;;;9.52;;
27632;SDS011;15046;50.930;13.334;2023-05-08T00:29:39;12.32;;;9.15;;
27632;SDS011;15046;50.930;13.334;2023-05-08T00:32:05;15.43;;;9.70;;
27632;SDS011;15046;50.930;13.334;2023-05-08T00:34:31;17.08;;;10.88;;
27632;SDS011;15046;50.930;13.334;2023-05-08T00:36:57;12.75;;;10.20;;
27632;SDS011;15046;50.930;13.334;2023-05-08T00:39:23;14.70;;;10.45;;
27632;SDS011;15046;50.930;13.334;2023-05-08T00:41:49;15.00;;;10.73;;
27632;SDS011;15046;50.930;13.334;2023-05-08T00:44:14;16.45;;;10.90;;
27632;SDS011;15046;50.930;13.334;2023-05-08T00:46:41;18.40;;;10.85;;
27632;SDS011;15046;50.930;13.334;2023-05-08T00:49:07;15.32;;;11.20;;
27632;SDS011;15046;50.930;13.334;2023-05-08T00:51:41;16.60;;;11.10;;
27632;SDS011;15046;50.930;13.334;2023-05-08T00:54:09;14.40;;;10.50;;
27632;SDS011;15046;50.930;13.334;2023-05-08T00:56:36;15.93;;;10.35;;
27632;SDS011;15046;50.930;13.334;2023-05-08T00:59:12;14.93;;;10.40;;
27632;SDS011;15046;50.930;13.334;2023-05-08T01:01:40;14.70;;;10.40;;
27632;SDS011;15046;50.930;13.334;2023-05-08T01:04:06;15.98;;;10.93;;
27632;SDS011;15046;50.930;13.334;2023-05-08T01:06:32;14.55;;;10.30;;
27632;SDS011;15046;50.930;13.334;2023-05-08T01:08:59;13.40;;;9.88;;
27632;SDS011;15046;50.930;13.334;2023-05-08T01:14:31;14.15;;;9.77;;
27632;SDS011;15046;50.930;13.334;2023-05-08T01:17:26;13.77;;;9.88;;
27632;SDS011;15046;50.930;13.334;2023-05-08T01:25:16;13.13;;;9.90;;
27632;SDS011;15046;50.930;13.334;2023-05-08T01:28:27;16.83;;;10.57;;
27632;SDS011;15046;50.930;13.334;2023-05-08T01:34:07;13.30;;;9.63;;
27632;SDS011;15046;50.930;13.334;2023-05-08T01:40:08;14.27;;;10.00;;
27632;SDS011;15046;50.930;13.334;2023-05-08T01:45:05;13.82;;;10.20;;
27632;SDS011;15046;50.930;13.334;2023-05-08T01:48:02;14.88;;;10.45;;
27632;SDS011;15046;50.930;13.334;2023-05-08T01:50:32;14.38;;;10.38;;
27632;SDS011;15046;50.930;13.334;2023-05-08T01:53:12;15.30;;;10.52;;
27632;SDS011;15046;50.930;13.334;2023-05-08T01:55:47;18.65;;;11.93;;
27632;SDS011;15046;50.930;13.334;2023-05-08T01:58:17;16.98;;;11.55;;
27632;SDS011;15046;50.930;13.334;2023-05-08T02:00:44;16.45;;;11.18;;
27632;SDS011;15046;50.930;13.334;2023-05-08T02:03:11;16.45;;;11.50;;
27632;SDS011;15046;50.930;13.334;2023-05-08T02:05:40;16.88;;;10.93;;
27632;SDS011;15046;50.930;13.334;2023-05-08T02:08:08;18.30;;;12.10;;
27632;SDS011;15046;50.930;13.334;2023-05-08T02:10:37;19.38;;;11.52;;
27632;SDS011;15046;50.930;13.334;2023-05-08T02:13:04;15.90;;;11.52;;
27632;SDS011;15046;50.930;13.334;2023-05-08T02:15:31;15.48;;;11.07;;
27632;SDS011;15046;50.930;13.334;2023-05-08T02:18:01;14.77;;;11.30;;
27632;SDS011;15046;50.930;13.334;2023-05-08T02:20:31;17.20;;;11.45;;
27632;SDS011;15046;50.930;13.334;2023-05-08T02:22:57;18.55;;;12.30;;
27632;SDS011;15046;50.930;13.334;2023-05-08T02:25:25;15.80;;;11.02;;
27632;SDS011;15046;50.930;13.334;2023-05-08T02:27:52;15.48;;;10.52;;
27632;SDS011;15046;50.930;13.334;2023-05-08T02:30:19;17.20;;;11.73;;
27632;SDS011;15046;50.930;13.334;2023-05-08T02:32:48;17.15;;;11.82;;
27632;SDS011;15046;50.930;13.334;2023-05-08T02:35:15;18.65;;;12.27;;
27632;SDS011;15046;50.930;13.334;2023-05-08T02:37:43;18.00;;;12.43;;
27632;SDS011;15046;50.930;13.334;2023-05-08T02:40:10;16.83;;;11.52;;
27632;SDS011;15046;50.930;13.334;2023-05-08T02:42:38;17.73;;;11.63;;
27632;SDS011;15046;50.930;13.334;2023-05-08T02:45:04;18.02;;;11.52;;
27632;SDS011;15046;50.930;13.334;2023-05-08T02:53:30;15.80;;;11.60;;
27632;SDS011;15046;50.930;13.334;2023-05-08T02:56:04;16.75;;;11.52;;
27632;SDS011;15046;50.930;13.334;2023-05-08T03:01:41;22.30;;;12.25;;
27632;SDS011;15046;50.930;13.334;2023-05-08T03:04:13;17.65;;;12.30;;
27632;SDS011;15046;50.930;13.334;2023-05-08T03:06:47;17.63;;;11.80;;
27632;SDS011;15046;50.930;13.334;2023-05-08T03:09:15;18.67;;;12.32;;
27632;SDS011;15046;50.930;13.334;2023-05-08T03:11:46;16.85;;;11.32;;
27632;SDS011;15046;50.930;13.334;2023-05-08T03:14:14;16.73;;;11.80;;
27632;SDS011;15046;50.930;13.334;2023-05-08T03:16:44;17.65;;;11.43;;
27632;SDS011;15046;50.930;13.334;2023-05-08T03:19:22;17.80;;;11.20;;
27632;SDS011;15046;50.930;13.334;2023-05-08T03:21:51;18.63;;;12.57;;
27632;SDS011;15046;50.930;13.334;2023-05-08T03:24:18;17.63;;;11.38;;
27632;SDS011;15046;50.930;13.334;2023-05-08T03:26:46;17.10;;;10.98;;
27632;SDS011;15046;50.930;13.334;2023-05-08T03:29:12;16.63;;;11.57;;
27632;SDS011;15046;50.930;13.334;2023-05-08T03:31:40;18.63;;;12.43;;
27632;SDS011;15046;50.930;13.334;2023-05-08T03:34:07;21.40;;;12.48;;
27632;SDS011;15046;50.930;13.334;2023-05-08T03:36:36;16.55;;;10.75;;
27632;SDS011;15046;50.930;13.334;2023-05-08T03:39:02;17.30;;;11.40;;
27632;SDS011;15046;50.930;13.334;2023-05-08T03:41:28;17.77;;;11.63;;
27632;SDS011;15046;50.930;13.334;2023-05-08T03:43:55;18.20;;;11.43;;
27632;SDS011;15046;50.930;13.334;2023-05-08T03:46:22;18.70;;;11.98;;
27632;SDS011;15046;50.930;13.334;2023-05-08T03:48:49;15.82;;;10.90;;
27632;SDS011;15046;50.930;13.334;2023-05-08T03:51:20;17.25;;;11.40;;
27632;SDS011;15046;50.930;13.334;2023-05-08T03:53:48;16.20;;;11.07;;
27632;SDS011;15046;50.930;13.334;2023-05-08T03:56:15;16.10;;;10.85;;
27632;SDS011;15046;50.930;13.334;2023-05-08T03:58:52;15.73;;;10.68;;
27632;SDS011;15046;50.930;13.334;2023-05-08T04:02:01;16.98;;;11.18;;
27632;SDS011;15046;50.930;13.334;2023-05-08T04:04:37;18.90;;;11.23;;
27632;SDS011;15046;50.930;13.334;2023-05-08T04:07:07;16.52;;;10.55;;
27632;SDS011;15046;50.930;13.334;2023-05-08T04:10:02;15.75;;;11.23;;
27632;SDS011;15046;50.930;13.334;2023-05-08T04:12:37;17.40;;;11.50;;
27632;SDS011;15046;50.930;13.334;2023-05-08T04:15:18;14.55;;;10.35;;
27632;SDS011;15046;50.930;13.334;2023-05-08T04:20:23;16.08;;;10.57;;
27632;SDS011;15046;50.930;13.334;2023-05-08T04:25:18;15.00;;;10.77;;
27632;SDS011;15046;50.930;13.334;2023-05-08T04:27:46;15.45;;;10.10;;
27632;SDS011;15046;50.930;13.334;2023-05-08T04:30:15;13.27;;;9.93;;
27632;SDS011;15046;50.930;13.334;2023-05-08T04:32:41;16.85;;;9.73;;
27632;SDS011;15046;50.930;13.334;2023-05-08T04:35:07;12.23;;;8.70;;
27632;SDS011;15046;50.930;13.334;2023-05-08T04:37:33;12.82;;;9.15;;
27632;SDS011;15046;50.930;13.334;2023-05-08T04:39:59;13.43;;;9.25;;
27632;SDS011;15046;50.930;13.334;2023-05-08T04:42:26;13.05;;;9.07;;
27632;SDS011;15046;50.930;13.334;2023-05-08T04:44:52;14.25;;;9.82;;
27632;SDS011;15046;50.930;13.334;2023-05-08T04:47:18;16.73;;;9.98;;
27632;SDS011;15046;50.930;13.334;2023-05-08T04:49:48;13.02;;;9.30;;
27632;SDS011;15046;50.930;13.334;2023-05-08T04:52:14;15.30;;;9.25;;
27632;SDS011;15046;50.930;13.334;2023-05-08T04:54:40;12.73;;;8.25;;
27632;SDS011;15046;50.930;13.334;2023-05-08T04:57:05;15.95;;;10.23;;
27632;SDS011;15046;50.930;13.334;2023-05-08T04:59:32;12.90;;;8.73;;
27632;SDS011;15046;50.930;13.334;2023-05-08T05:01:58;14.07;;;9.80;;
27632;SDS011;15046;50.930;13.334;2023-05-08T05:04:26;13.88;;;10.15;;
27632;SDS011;15046;50.930;13.334;2023-05-08T05:06:53;16.08;;;10.77;;
27632;SDS011;15046;50.930;13.334;2023-05-08T05:09:19;15.82;;;10.98;;
27632;SDS011;15046;50.930;13.334;2023-05-08T05:11:45;15.27;;;10.00;;
27632;SDS011;15046;50.930;13.334;2023-05-08T05:14:11;13.75;;;8.68;;
27632;SDS011;15046;50.930;13.334;2023-05-08T05:16:37;14.10;;;8.60;;
27632;SDS011;15046;50.930;13.334;2023-05-08T05:19:03;12.38;;;8.60;;
27632;SDS011;15046;50.930;13.334;2023-05-08T05:21:28;13.63;;;8.85;;
27632;SDS011;15046;50.930;13.334;2023-05-08T05:23:54;13.70;;;8.93;;
27632;SDS011;15046;50.930;13.334;2023-05-08T05:26:20;11.13;;;8.02;;
27632;SDS011;15046;50.930;13.334;2023-05-08T05:28:47;10.98;;;8.05;;
27632;SDS011;15046;50.930;13.334;2023-05-08T05:31:13;10.85;;;7.35;;
27632;SDS011;15046;50.930;13.334;2023-05-08T05:33:39;11.48;;;7.97;;
27632;SDS011;15046;50.930;13.334;2023-05-08T05:36:05;12.13;;;7.97;;
27632;SDS011;15046;50.930;13.334;2023-05-08T05:38:31;12.27;;;7.20;;
27632;SDS011;15046;50.930;13.334;2023-05-08T05:40:58;10.25;;;6.70;;
27632;SDS011;15046;50.930;13.334;2023-05-08T05:43:24;11.07;;;6.88;;
27632;SDS011;15046;50.930;13.334;2023-05-08T05:45:50;9.32;;;6.43;;
27632;SDS011;15046;50.930;13.334;2023-05-08T05:48:16;10.55;;;6.25;;
27632;SDS011;15046;50.930;13.334;2023-05-08T05:50:42;10.05;;;6.30;;
27632;SDS011;15046;50.930;13.334;2023-05-08T05:53:08;10.93;;;7.22;;
27632;SDS011;15046;50.930;13.334;2023-05-08T05:55:34;9.82;;;7.20;;
27632;SDS011;15046;50.930;13.334;2023-05-08T05:57:59;10.30;;;6.75;;
27632;SDS011;15046;50.930;13.334;2023-05-08T06:00:25;12.38;;;7.80;;
27632;SDS011;15046;50.930;13.334;2023-05-08T06:02:51;10.65;;;7.22;;
27632;SDS011;15046;50.930;13.334;2023-05-08T06:05:17;11.90;;;7.82;;
27632;SDS011;15046;50.930;13.334;2023-05-08T06:07:43;11.60;;;7.63;;
27632;SDS011;15046;50.930;13.334;2023-05-08T06:10:10;11.90;;;7.47;;
27632;SDS011;15046;50.930;13.334;2023-05-08T06:12:36;10.30;;;7.05;;
27632;SDS011;15046;50.930;13.334;2023-05-08T06:15:02;11.48;;;6.82;;
27632;SDS011;15046;50.930;13.334;2023-05-08T06:17:28;10.30;;;6.78;;
27632;SDS011;15046;50.930;13.334;2023-05-08T06:19:54;10.48;;;6.65;;
27632;SDS011;15046;50.930;13.334;2023-05-08T06:22:20;9.65;;;6.15;;
27632;SDS011;15046;50.930;13.334;2023-05-08T06:24:50;10.15;;;6.07;;
27632;SDS011;15046;50.930;13.334;2023-05-08T06:27:20;9.10;;;6.72;;
27632;SDS011;15046;50.930;13.334;2023-05-08T06:29:49;9.98;;;6.53;;
27632;SDS011;15046;50.930;13.334;2023-05-08T06:32:17;9.15;;;6.05;;
27632;SDS011;15046;50.930;13.334;2023-05-08T06:34:47;8.13;;;5.65;;
27632;SDS011;15046;50.930;13.334;2023-05-08T06:37:13;8.30;;;5.68;;
27632;SDS011;15046;50.930;13.334;2023-05-08T06:39:39;9.23;;;6.32;;
27632;SDS011;15046;50.930;13.334;2023-05-08T06:42:05;7.45;;;5.35;;
27632;SDS011;15046;50.930;13.334;2023-05-08T06:44:31;8.45;;;5.40;;
27632;SDS011;15046;50.930;13.334;2023-05-08T06:46:57;10.15;;;6.75;;
27632;SDS011;15046;50.930;13.334;2023-05-08T06:49:23;9.10;;;5.47;;
27632;SDS011;15046;50.930;13.334;2023-05-08T06:51:49;10.05;;;6.07;;
27632;SDS011;15046;50.930;13.334;2023-05-08T06:54:15;8.23;;;6.03;;
27632;SDS011;15046;50.930;13.334;2023-05-08T06:56:41;9.15;;;5.72;;
27632;SDS011;15046;50.930;13.334;2023-05-08T06:59:07;8.35;;;5.68;;
27632;SDS011;15046;50.930;13.334;2023-05-08T07:01:33;9.65;;;5.55;;
27632;SDS011;15046;50.930;13.334;2023-05-08T07:04:01;6.97;;;5.05;;
27632;SDS011;15046;50.930;13.334;2023-05-08T07:06:27;7.63;;;5.03;;
27632;SDS011;15046;50.930;13.334;2023-05-08T07:08:55;7.03;;;4.60;;
27632;SDS011;15046;50.930;13.334;2023-05-08T07:11:21;7.45;;;4.60;;
27632;SDS011;15046;50.930;13.334;2023-05-08T07:13:47;7.50;;;4.53;;
27632;SDS011;15046;50.930;13.334;2023-05-08T07:16:15;7.15;;;4.65;;
27632;SDS011;15046;50.930;13.334;2023-05-08T07:18:42;6.78;;;4.50;;
27632;SDS011;15046;50.930;13.334;2023-05-08T07:21:08;7.03;;;4.45;;
27632;SDS011;15046;50.930;13.334;2023-05-08T07:23:34;7.43;;;4.75;;
27632;SDS011;15046;50.930;13.334;2023-05-08T07:26:00;7.45;;;4.63;;
27632;SDS011;15046;50.930;13.334;2023-05-08T07:28:26;6.95;;;4.43;;
27632;SDS011;15046;50.930;13.334;2023-05-08T07:30:52;6.85;;;4.47;;
27632;SDS011;15046;50.930;13.334;2023-05-08T07:33:18;6.40;;;4.45;;
27632;SDS011;15046;50.930;13.334;2023-05-08T07:35:43;6.70;;;4.30;;
27632;SDS011;15046;50.930;13.334;2023-05-08T07:38:10;6.82;;;3.60;;
27632;SDS011;15046;50.930;13.334;2023-05-08T07:40:36;5.20;;;3.30;;
27632;SDS011;15046;50.930;13.334;2023-05-08T07:43:03;6.97;;;3.53;;
27632;SDS011;15046;50.930;13.334;2023-05-08T07:45:30;5.03;;;3.15;;
27632;SDS011;15046;50.930;13.334;2023-05-08T07:47:57;4.50;;;2.67;;
27632;SDS011;15046;50.930;13.334;2023-05-08T07:50:24;4.80;;;3.10;;
27632;SDS011;15046;50.930;13.334;2023-05-08T07:52:51;5.15;;;3.13;;
27632;SDS011;15046;50.930;13.334;2023-05-08T07:55:17;5.75;;;3.40;;
27632;SDS011;15046;50.930;13.334;2023-05-08T07:57:43;5.68;;;3.25;;
27632;SDS011;15046;50.930;13.334;2023-05-08T08:00:10;5.75;;;3.97;;
27632;SDS011;15046;50.930;13.334;2023-05-08T08:02:37;7.00;;;4.50;;
27632;SDS011;15046;50.930;13.334;2023-05-08T08:05:04;6.88;;;4.47;;
27632;SDS011;15046;50.930;13.334;2023-05-08T08:07:30;6.47;;;4.43;;
27632;SDS011;15046;50.930;13.334;2023-05-08T08:09:57;7.13;;;4.28;;
27632;SDS011;15046;50.930;13.334;2023-05-08T08:12:23;6.85;;;4.53;;
27632;SDS011;15046;50.930;13.334;2023-05-08T08:14:49;7.82;;;4.20;;
27632;SDS011;15046;50.930;13.334;2023-05-08T08:17:15;6.15;;;3.70;;
27632;SDS011;15046;50.930;13.334;2023-05-08T08:19:41;6.35;;;4.18;;
27632;SDS011;15046;50.930;13.334;2023-05-08T08:22:07;6.95;;;4.18;;
27632;SDS011;15046;50.930;13.334;2023-05-08T08:24:33;7.43;;;3.88;;
27632;SDS011;15046;50.930;13.334;2023-05-08T08:26:59;5.18;;;3.30;;
27632;SDS011;15046;50.930;13.334;2023-05-08T08:29:25;5.60;;;3.65;;
27632;SDS011;15046;50.930;13.334;2023-05-08T08:31:51;5.80;;;3.78;;
27632;SDS011;15046;50.930;13.334;2023-05-08T08:34:17;6.60;;;3.65;;
27632;SDS011;15046;50.930;13.334;2023-05-08T08:36:42;4.50;;;3.22;;
27632;SDS011;15046;50.930;13.334;2023-05-08T08:39:08;5.97;;;3.67;;
27632;SDS011;15046;50.930;13.334;2023-05-08T08:41:35;6.35;;;3.60;;
27632;SDS011;15046;50.930;13.334;2023-05-08T08:44:03;5.82;;;3.17;;
27632;SDS011;15046;50.930;13.334;2023-05-08T08:46:30;5.68;;;2.72;;
27632;SDS011;15046;50.930;13.334;2023-05-08T08:48:59;6.37;;;3.43;;
27632;SDS011;15046;50.930;13.334;2023-05-08T08:51:30;4.88;;;3.15;;
27632;SDS011;15046;50.930;13.334;2023-05-08T08:54:12;4.82;;;2.92;;
27632;SDS011;15046;50.930;13.334;2023-05-08T08:56:41;4.97;;;2.72;;
27632;SDS011;15046;50.930;13.334;2023-05-08T08:59:12;5.50;;;3.13;;
27632;SDS011;15046;50.930;13.334;2023-05-08T09:01:41;5.15;;;2.85;;
27632;SDS011;15046;50.930;13.334;2023-05-08T09:04:11;4.97;;;3.22;;
27632;SDS011;15046;50.930;13.334;2023-05-08T09:06:37;4.55;;;2.58;;
27632;SDS011;15046;50.930;13.334;2023-05-08T09:09:05;5.85;;;2.42;;
27632;SDS011;15046;50.930;13.334;2023-05-08T09:11:31;4.25;;;2.63;;
27632;SDS011;15046;50.930;13.334;2023-05-08T09:13:57;6.82;;;2.80;;
27632;SDS011;15046;50.930;13.334;2023-05-08T09:16:23;6.03;;;3.05;;
27632;SDS011;15046;50.930;13.334;2023-05-08T09:18:49;5.85;;;2.75;;
27632;SDS011;15046;50.930;13.334;2023-05-08T09:21:15;4.43;;;2.40;;
27632;SDS011;15046;50.930;13.334;2023-05-08T09:23:57;7.15;;;2.53;;
27632;SDS011;15046;50.930;13.334;2023-05-08T09:31:44;4.35;;;2.40;;
27632;SDS011;15046;50.930;13.334;2023-05-08T09:34:20;5.20;;;2.90;;
27632;SDS011;15046;50.930;13.334;2023-05-08T09:36:53;7.15;;;3.35;;
27632;SDS011;15046;50.930;13.334;2023-05-08T09:39:20;4.90;;;2.67;;
27632;SDS011;15046;50.930;13.334;2023-05-08T09:41:58;3.85;;;2.25;;
27632;SDS011;15046;50.930;13.334;2023-05-08T09:44:28;3.45;;;2.00;;
27632;SDS011;15046;50.930;13.334;2023-05-08T09:47:09;3.78;;;1.52;;
27632;SDS011;15046;50.930;13.334;2023-05-08T09:49:56;5.80;;;3.05;;
27632;SDS011;15046;50.930;13.334;2023-05-08T09:52:29;6.22;;;3.03;;
27632;SDS011;15046;50.930;13.334;2023-05-08T09:55:02;5.13;;;1.55;;
27632;SDS011;15046;50.930;13.334;2023-05-08T09:57:30;2.70;;;1.35;;
27632;SDS011;15046;50.930;13.334;2023-05-08T10:02:34;2.58;;;1.25;;
27632;SDS011;15046;50.930;13.334;2023-05-08T10:05:01;2.75;;;1.10;;
27632;SDS011;15046;50.930;13.334;2023-05-08T10:07:33;3.65;;;1.45;;
27632;SDS011;15046;50.930;13.334;2023-05-08T10:10:02;2.13;;;0.98;;
27632;SDS011;15046;50.930;13.334;2023-05-08T10:12:30;4.53;;;1.40;;
27632;SDS011;15046;50.930;13.334;2023-05-08T10:14:56;1.98;;;1.08;;
27632;SDS011;15046;50.930;13.334;2023-05-08T10:17:34;1.63;;;1.00;;
27632;SDS011;15046;50.930;13.334;2023-05-08T10:20:08;3.25;;;1.02;;
27632;SDS011;15046;50.930;13.334;2023-05-08T10:22:42;2.03;;;1.20;;
27632;SDS011;15046;50.930;13.334;2023-05-08T10:25:15;1.67;;;0.95;;
27632;SDS011;15046;50.930;13.334;2023-05-08T10:30:37;2.17;;;1.35;;
27632;SDS011;15046;50.930;13.334;2023-05-08T10:33:12;4.65;;;1.23;;
27632;SDS011;15046;50.930;13.334;2023-05-08T10:35:42;3.42;;;1.20;;
27632;SDS011;15046;50.930;13.334;2023-05-08T10:38:09;2.45;;;1.30;;
27632;SDS011;15046;50.930;13.334;2023-05-08T10:40:39;2.22;;;1.17;;
27632;SDS011;15046;50.930;13.334;2023-05-08T10:43:06;2.75;;;1.40;;
27632;SDS011;15046;50.930;13.334;2023-05-08T10:45:33;7.13;;;1.52;;
27632;SDS011;15046;50.930;13.334;2023-05-08T10:53:56;2.85;;;1.27;;
27632;SDS011;15046;50.930;13.334;2023-05-08T10:56:29;2.83;;;1.60;;
27632;SDS011;15046;50.930;13.334;2023-05-08T10:58:55;3.13;;;1.40;;
27632;SDS011;15046;50.930;13.334;2023-05-08T11:01:22;1.70;;;1.10;;
27632;SDS011;15046;50.930;13.334;2023-05-08T11:03:48;2.88;;;1.33;;
27632;SDS011;15046;50.930;13.334;2023-05-08T11:06:14;3.10;;;1.33;;
27632;SDS011;15046;50.930;13.334;2023-05-08T11:08:44;3.15;;;1.40;;
27632;SDS011;15046;50.930;13.334;2023-05-08T11:11:31;1.85;;;1.17;;
27632;SDS011;15046;50.930;13.334;2023-05-08T11:14:09;2.50;;;1.30;;
27632;SDS011;15046;50.930;13.334;2023-05-08T11:19:26;2.95;;;1.45;;
27632;SDS011;15046;50.930;13.334;2023-05-08T11:24:38;2.97;;;1.60;;
27632;SDS011;15046;50.930;13.334;2023-05-08T11:38:14;2.30;;;1.20;;
27632;SDS011;15046;50.930;13.334;2023-05-08T11:43:25;2.88;;;1.40;;
27632;SDS011;15046;50.930;13.334;2023-05-08T11:46:04;3.50;;;1.30;;
27632;SDS011;15046;50.930;13.334;2023-05-08T11:48:34;5.65;;;1.67;;
27632;SDS011;15046;50.930;13.334;2023-05-08T11:51:01;5.43;;;1.85;;
27632;SDS011;15046;50.930;13.334;2023-05-08T11:53:29;2.72;;;1.27;;
27632;SDS011;15046;50.930;13.334;2023-05-08T11:55:55;4.40;;;1.45;;
27632;SDS011;15046;50.930;13.334;2023-05-08T11:58:21;2.50;;;1.45;;
27632;SDS011;15046;50.930;13.334;2023-05-08T12:00:47;1.77;;;1.17;;
27632;SDS011;15046;50.930;13.334;2023-05-08T12:03:15;3.50;;;1.20;;
27632;SDS011;15046;50.930;13.334;2023-05-08T12:05:42;4.97;;;1.55;;
27632;SDS011;15046;50.930;13.334;2023-05-08T12:08:09;3.03;;;1.50;;
27632;SDS011;15046;50.930;13.334;2023-05-08T12:15:46;2.38;;;1.48;;
27632;SDS011;15046;50.930;13.334;2023-05-08T12:18:14;2.55;;;1.30;;
27632;SDS011;15046;50.930;13.334;2023-05-08T12:20:41;2.65;;;1.30;;
27632;SDS011;15046;50.930;13.334;2023-05-08T12:23:08;3.75;;;1.70;;
27632;SDS011;15046;50.930;13.334;2023-05-08T12:25:36;5.00;;;1.40;;
27632;SDS011;15046;50.930;13.334;2023-05-08T12:28:04;3.05;;;1.52;;
27632;SDS011;15046;50.930;13.334;2023-05-08T12:30:32;3.08;;;1.38;;
27632;SDS011;15046;50.930;13.334;2023-05-08T12:33:00;5.63;;;1.80;;
27632;SDS011;15046;50.930;13.334;2023-05-08T12:35:27;2.65;;;1.42;;
27632;SDS011;15046;50.930;13.334;2023-05-08T12:37:53;5.60;;;1.85;;
27632;SDS011;15046;50.930;13.334;2023-05-08T12:40:26;4.47;;;1.17;;
27632;SDS011;15046;50.930;13.334;2023-05-08T12:42:56;2.17;;;1.13;;
27632;SDS011;15046;50.930;13.334;2023-05-08T12:45:28;2.87;;;1.53;;
27632;SDS011;15046;50.930;13.334;2023-05-08T12:47:59;6.43;;;1.90;;
27632;SDS011;15046;50.930;13.334;2023-05-08T12:50:27;3.28;;;1.50;;
27632;SDS011;15046;50.930;13.334;2023-05-08T12:53:01;4.65;;;1.63;;
27632;SDS011;15046;50.930;13.334;2023-05-08T12:55:29;3.13;;;1.42;;
27632;SDS011;15046;50.930;13.334;2023-05-08T12:57:57;3.60;;;1.50;;
27632;SDS011;15046;50.930;13.334;2023-05-08T13:03:07;3.30;;;1.50;;
27632;SDS011;15046;50.930;13.334;2023-05-08T13:05:34;3.28;;;1.40;;
27632;SDS011;15046;50.930;13.334;2023-05-08T13:08:04;3.00;;;1.58;;
27632;SDS011;15046;50.930;13.334;2023-05-08T13:13:11;2.95;;;1.70;;
27632;SDS011;15046;50.930;13.334;2023-05-08T13:15:42;2.50;;;1.40;;
27632;SDS011;15046;50.930;13.334;2023-05-08T13:18:08;4.03;;;1.20;;
27632;SDS011;15046;50.930;13.334;2023-05-08T13:20:34;3.40;;;1.38;;
27632;SDS011;15046;50.930;13.334;2023-05-08T13:23:01;2.50;;;1.35;;
27632;SDS011;15046;50.930;13.334;2023-05-08T13:25:27;2.95;;;1.52;;
27632;SDS011;15046;50.930;13.334;2023-05-08T13:27:54;4.90;;;1.50;;
27632;SDS011;15046;50.930;13.334;2023-05-08T13:30:22;2.05;;;1.23;;
27632;SDS011;15046;50.930;13.334;2023-05-08T13:32:48;4.07;;;1.40;;
27632;SDS011;15046;50.930;13.334;2023-05-08T13:37:43;2.53;;;1.30;;
27632;SDS011;15046;50.930;13.334;2023-05-08T13:40:09;2.90;;;1.42;;
27632;SDS011;15046;50.930;13.334;2023-05-08T13:42:35;2.85;;;1.38;;
27632;SDS011;15046;50.930;13.334;2023-05-08T13:45:02;3.67;;;1.63;;
27632;SDS011;15046;50.930;13.334;2023-05-08T13:47:28;2.90;;;1.77;;
27632;SDS011;15046;50.930;13.334;2023-05-08T13:49:54;3.15;;;1.52;;
27632;SDS011;15046;50.930;13.334;2023-05-08T13:52:20;2.65;;;1.27;;
27632;SDS011;15046;50.930;13.334;2023-05-08T13:54:46;2.58;;;1.42;;
27632;SDS011;15046;50.930;13.334;2023-05-08T13:57:11;2.53;;;1.30;;
27632;SDS011;15046;50.930;13.334;2023-05-08T13:59:37;3.65;;;1.40;;
27632;SDS011;15046;50.930;13.334;2023-05-08T14:02:03;2.28;;;1.27;;
27632;SDS011;15046;50.930;13.334;2023-05-08T14:04:29;3.60;;;1.30;;
27632;SDS011;15046;50.930;13.334;2023-05-08T14:06:55;2.72;;;1.30;;
27632;SDS011;15046;50.930;13.334;2023-05-08T14:09:20;2.33;;;1.38;;
27632;SDS011;15046;50.930;13.334;2023-05-08T14:11:46;3.72;;;1.25;;
27632;SDS011;15046;50.930;13.334;2023-05-08T14:14:12;3.95;;;1.40;;
27632;SDS011;15046;50.930;13.334;2023-05-08T14:16:38;3.75;;;1.52;;
27632;SDS011;15046;50.930;13.334;2023-05-08T14:19:04;5.45;;;1.58;;
27632;SDS011;15046;50.930;13.334;2023-05-08T14:21:29;1.85;;;1.17;;
27632;SDS011;15046;50.930;13.334;2023-05-08T14:23:55;2.35;;;1.20;;
27632;SDS011;15046;50.930;13.334;2023-05-08T14:26:21;3.83;;;1.30;;
27632;SDS011;15046;50.930;13.334;2023-05-08T14:28:47;3.05;;;1.60;;
27632;SDS011;15046;50.930;13.334;2023-05-08T14:31:13;4.38;;;1.40;;
27632;SDS011;15046;50.930;13.334;2023-05-08T14:33:39;2.03;;;1.35;;
27632;SDS011;15046;50.930;13.334;2023-05-08T14:36:05;2.92;;;1.40;;
27632;SDS011;15046;50.930;13.334;2023-05-08T14:38:32;2.53;;;1.33;;
27632;SDS011;15046;50.930;13.334;2023-05-08T14:40:57;2.95;;;1.40;;
27632;SDS011;15046;50.930;13.334;2023-05-08T14:43:23;3.33;;;1.50;;
27632;SDS011;15046;50.930;13.334;2023-05-08T14:45:49;2.75;;;1.30;;
27632;SDS011;15046;50.930;13.334;2023-05-08T14:48:15;2.40;;;1.15;;
27632;SDS011;15046;50.930;13.334;2023-05-08T14:50:41;2.20;;;1.20;;
27632;SDS011;15046;50.930;13.334;2023-05-08T14:53:07;2.83;;;1.40;;
27632;SDS011;15046;50.930;13.334;2023-05-08T14:55:33;4.22;;;1.30;;
27632;SDS011;15046;50.930;13.334;2023-05-08T14:57:59;2.53;;;1.48;;
27632;SDS011;15046;50.930;13.334;2023-05-08T15:00:25;2.28;;;1.20;;
27632;SDS011;15046;50.930;13.334;2023-05-08T15:02:50;1.50;;;1.02;;
27632;SDS011;15046;50.930;13.334;2023-05-08T15:05:16;2.40;;;1.20;;
27632;SDS011;15046;50.930;13.334;2023-05-08T15:07:42;3.00;;;1.17;;
27632;SDS011;15046;50.930;13.334;2023-05-08T15:10:08;5.47;;;1.60;;
27632;SDS011;15046;50.930;13.334;2023-05-08T15:12:34;2.95;;;1.25;;
27632;SDS011;15046;50.930;13.334;2023-05-08T15:15:00;2.63;;;1.50;;
27632;SDS011;15046;50.930;13.334;2023-05-08T15:17:27;2.53;;;1.00;;
27632;SDS011;15046;50.930;13.334;2023-05-08T15:19:53;2.47;;;1.25;;
27632;SDS011;15046;50.930;13.334;2023-05-08T15:22:19;2.75;;;1.70;;
27632;SDS011;15046;50.930;13.334;2023-05-08T15:24:44;4.22;;;1.50;;
27632;SDS011;15046;50.930;13.334;2023-05-08T15:27:10;2.53;;;1.30;;
27632;SDS011;15046;50.930;13.334;2023-05-08T15:29:36;2.25;;;1.27;;
27632;SDS011;15046;50.930;13.334;2023-05-08T15:32:05;2.87;;;1.27;;
27632;SDS011;15046;50.930;13.334;2023-05-08T15:34:30;2.55;;;1.30;;
27632;SDS011;15046;50.930;13.334;2023-05-08T15:36:56;3.00;;;1.00;;
27632;SDS011;15046;50.930;13.334;2023-05-08T15:39:22;5.07;;;1.58;;
27632;SDS011;15046;50.930;13.334;2023-05-08T15:41:48;2.10;;;1.13;;
27632;SDS011;15046;50.930;13.334;2023-05-08T15:44:13;4.78;;;1.50;;
27632;SDS011;15046;50.930;13.334;2023-05-08T15:46:42;1.70;;;1.13;;
27632;SDS011;15046;50.930;13.334;2023-05-08T15:49:08;2.92;;;1.20;;
27632;SDS011;15046;50.930;13.334;2023-05-08T15:51:34;2.30;;;1.10;;